createdAt,value
2017-07-19T00:00:51.672Z,0
2017-07-19T00:01:51.694Z,0
2017-07-19T00:02:51.720Z,0
2017-07-19T00:03:51.439Z,0
2017-07-19T00:04:51.139Z,0
2017-07-19T00:05:51.174Z,0
2017-07-19T00:06:51.835Z,0
2017-07-19T00:07:51.539Z,0
2017-07-19T00:08:51.888Z,0
2017-07-19T00:09:51.592Z,0
2017-07-19T00:10:51.631Z,0
2017-07-19T00:11:51.958Z,0
2017-07-19T00:12:51.991Z,0
2017-07-19T00:13:52.006Z,0
2017-07-19T00:14:52.059Z,0
2017-07-19T00:15:52.184Z,0
2017-07-19T00:16:51.345Z,0
2017-07-19T00:17:51.979Z,0
2017-07-19T00:18:52.294Z,0
2017-07-19T00:19:52.296Z,0
2017-07-19T00:20:52.326Z,0
2017-07-19T00:21:51.986Z,0
2017-07-19T00:22:52.025Z,0
2017-07-19T00:23:52.036Z,0
2017-07-19T00:24:52.068Z,0
2017-07-19T00:25:52.056Z,0
2017-07-19T00:26:52.444Z,0
2017-07-19T00:27:52.060Z,0
2017-07-19T00:28:52.158Z,0
2017-07-19T00:29:52.425Z,0
2017-07-19T00:30:52.454Z,0
2017-07-19T00:31:52.281Z,0
2017-07-19T00:32:52.504Z,0
2017-07-19T00:33:52.524Z,0
2017-07-19T00:34:51.928Z,0
2017-07-19T00:35:51.953Z,0
2017-07-19T00:36:52.611Z,0
2017-07-19T00:37:52.629Z,0
2017-07-19T00:38:52.660Z,0
2017-07-19T00:39:52.367Z,0
2017-07-19T00:40:52.397Z,0
2017-07-19T00:41:52.741Z,0
2017-07-19T00:42:52.758Z,0
2017-07-19T00:43:52.793Z,0
2017-07-19T00:44:52.505Z,0
2017-07-19T00:45:52.847Z,0
2017-07-19T00:46:52.544Z,0
2017-07-19T00:47:52.891Z,0
2017-07-19T00:48:52.608Z,0
2017-07-19T00:49:51.997Z,0
2017-07-19T00:50:52.969Z,0
2017-07-19T00:51:52.995Z,0
2017-07-19T00:52:52.705Z,0
2017-07-19T00:53:53.044Z,0
2017-07-19T00:54:52.883Z,0
2017-07-19T00:55:53.148Z,0
2017-07-19T00:56:53.187Z,0
2017-07-19T00:57:53.163Z,0
2017-07-19T00:58:53.177Z,0
2017-07-19T00:59:52.911Z,0
2017-07-19T01:00:53.224Z,0
2017-07-19T01:01:52.959Z,0
2017-07-19T01:02:53.273Z,0
2017-07-19T01:03:52.987Z,0
2017-07-19T01:04:53.326Z,0
2017-07-19T01:05:53.035Z,0
2017-07-19T01:06:53.378Z,0
2017-07-19T01:07:53.087Z,0
2017-07-19T01:08:53.434Z,0
2017-07-19T01:09:53.456Z,0
2017-07-19T01:10:53.159Z,0
2017-07-19T01:11:53.635Z,0
2017-07-19T01:12:53.525Z,0
2017-07-19T01:13:53.560Z,0
2017-07-19T01:14:53.264Z,0
2017-07-19T01:15:53.613Z,0
2017-07-19T01:16:53.316Z,0
2017-07-19T01:17:53.032Z,0
2017-07-19T01:18:53.698Z,0
2017-07-19T01:19:53.712Z,0
2017-07-19T01:20:53.747Z,0
2017-07-19T01:21:53.443Z,0
2017-07-19T01:22:53.156Z,0
2017-07-19T01:23:53.808Z,0
2017-07-19T01:24:53.832Z,0
2017-07-19T01:25:53.543Z,0
2017-07-19T01:26:53.884Z,0
2017-07-19T01:27:53.598Z,0
2017-07-19T01:28:53.933Z,0
2017-07-19T01:29:53.641Z,0
2017-07-19T01:30:53.982Z,0
2017-07-19T01:31:53.376Z,0
2017-07-19T01:32:54.031Z,0
2017-07-19T01:33:54.060Z,0
2017-07-19T01:34:53.764Z,0
2017-07-19T01:35:53.799Z,0
2017-07-19T01:36:53.947Z,0
2017-07-19T01:37:54.253Z,0
2017-07-19T01:38:53.926Z,0
2017-07-19T01:39:54.041Z,0
2017-07-19T01:40:54.074Z,0
2017-07-19T01:41:53.774Z,0
2017-07-19T01:42:54.364Z,0
2017-07-19T01:43:54.027Z,0
2017-07-19T01:44:54.071Z,0
2017-07-19T01:45:54.420Z,0
2017-07-19T01:46:53.751Z,0
2017-07-19T01:47:54.099Z,0
2017-07-19T01:48:54.136Z,0
2017-07-19T01:49:54.464Z,0
2017-07-19T01:50:54.171Z,0
2017-07-19T01:51:53.880Z,0
2017-07-19T01:52:54.636Z,0
2017-07-19T01:53:54.636Z,0
2017-07-19T01:54:54.593Z,0
2017-07-19T01:55:54.632Z,0
2017-07-19T01:56:54.824Z,0
2017-07-19T01:57:54.740Z,0
2017-07-19T01:58:54.775Z,0
2017-07-19T01:59:54.389Z,0
2017-07-19T02:00:54.741Z,0
2017-07-19T02:01:54.874Z,0
2017-07-19T02:02:55.024Z,0
2017-07-19T02:03:54.185Z,0
2017-07-19T02:04:55.177Z,0
2017-07-19T02:05:54.281Z,0
2017-07-19T02:06:55.034Z,0
2017-07-19T02:07:55.038Z,0
2017-07-19T02:08:55.046Z,0
2017-07-19T02:09:54.746Z,0
2017-07-19T02:10:54.670Z,0
2017-07-19T02:11:54.703Z,0
2017-07-19T02:12:54.740Z,0
2017-07-19T02:13:54.750Z,0
2017-07-19T02:14:55.088Z,0
2017-07-19T02:15:55.111Z,0
2017-07-19T02:16:55.132Z,0
2017-07-19T02:17:55.265Z,0
2017-07-19T02:18:54.873Z,0
2017-07-19T02:19:55.329Z,0
2017-07-19T02:20:55.322Z,0
2017-07-19T02:21:55.354Z,0
2017-07-19T02:22:54.965Z,0
2017-07-19T02:23:55.393Z,0
2017-07-19T02:24:55.492Z,0
2017-07-19T02:25:55.476Z,0
2017-07-19T02:26:55.514Z,0
2017-07-19T02:27:55.710Z,0
2017-07-19T02:28:55.524Z,0
2017-07-19T02:29:55.532Z,0
2017-07-19T02:30:55.537Z,0
2017-07-19T02:31:55.543Z,0
2017-07-19T02:32:55.209Z,0
2017-07-19T02:33:55.425Z,0
2017-07-19T02:34:55.363Z,0
2017-07-19T02:35:55.722Z,0
2017-07-19T02:36:55.816Z,0
2017-07-19T02:37:55.696Z,0
2017-07-19T02:38:55.786Z,0
2017-07-19T02:39:55.462Z,0
2017-07-19T02:40:55.184Z,0
2017-07-19T02:41:55.796Z,0
2017-07-19T02:42:55.778Z,0
2017-07-19T02:43:55.480Z,0
2017-07-19T02:44:55.508Z,0
2017-07-19T02:45:55.846Z,0
2017-07-19T02:46:55.562Z,0
2017-07-19T02:47:55.896Z,0
2017-07-19T02:48:55.598Z,0
2017-07-19T02:49:55.629Z,0
2017-07-19T02:50:56.046Z,0
2017-07-19T02:51:55.447Z,0
2017-07-19T02:52:56.019Z,4
2017-07-19T02:53:55.783Z,4
2017-07-19T02:54:55.781Z,4
2017-07-19T02:55:55.779Z,0
2017-07-19T02:56:55.814Z,0
2017-07-19T02:57:55.820Z,4
2017-07-19T02:58:55.842Z,4
2017-07-19T02:59:55.870Z,4
2017-07-19T03:00:55.896Z,4
2017-07-19T03:01:56.228Z,4
2017-07-19T03:02:56.270Z,8
2017-07-19T03:03:56.093Z,4
2017-07-19T03:04:56.017Z,8
2017-07-19T03:05:55.694Z,8
2017-07-19T03:06:56.367Z,8
2017-07-19T03:07:56.378Z,12
2017-07-19T03:08:56.088Z,8
2017-07-19T03:09:56.434Z,12
2017-07-19T03:10:56.445Z,12
2017-07-19T03:11:56.476Z,16
2017-07-19T03:12:56.409Z,16
2017-07-19T03:13:56.598Z,20
2017-07-19T03:14:56.302Z,20
2017-07-19T03:15:56.620Z,20
2017-07-19T03:16:56.624Z,24
2017-07-19T03:17:56.738Z,24
2017-07-19T03:18:56.351Z,24
2017-07-19T03:19:56.345Z,28
2017-07-19T03:20:56.490Z,32
2017-07-19T03:21:56.087Z,32
2017-07-19T03:22:56.538Z,32
2017-07-19T03:23:56.447Z,36
2017-07-19T03:24:56.560Z,40
2017-07-19T03:25:56.821Z,44
2017-07-19T03:26:56.586Z,44
2017-07-19T03:27:56.865Z,48
2017-07-19T03:28:56.933Z,48
2017-07-19T03:29:56.989Z,52
2017-07-19T03:30:56.938Z,52
2017-07-19T03:31:56.005Z,56
2017-07-19T03:32:56.986Z,60
2017-07-19T03:33:56.689Z,60
2017-07-19T03:34:57.037Z,68
2017-07-19T03:35:56.805Z,68
2017-07-19T03:36:57.094Z,72
2017-07-19T03:37:57.107Z,72
2017-07-19T03:38:56.744Z,76
2017-07-19T03:39:57.235Z,80
2017-07-19T03:40:56.566Z,80
2017-07-19T03:41:57.202Z,84
2017-07-19T03:42:57.221Z,84
2017-07-19T03:43:56.632Z,88
2017-07-19T03:44:56.951Z,92
2017-07-19T03:45:57.292Z,92
2017-07-19T03:46:57.011Z,96
2017-07-19T03:47:57.235Z,100
2017-07-19T03:48:57.573Z,104
2017-07-19T03:49:57.431Z,104
2017-07-19T03:50:57.461Z,108
2017-07-19T03:51:57.440Z,112
2017-07-19T03:52:57.149Z,116
2017-07-19T03:53:57.584Z,120
2017-07-19T03:54:56.557Z,124
2017-07-19T03:55:56.895Z,128
2017-07-19T03:56:57.048Z,132
2017-07-19T03:57:57.262Z,136
2017-07-19T03:58:57.683Z,140
2017-07-19T03:59:57.706Z,144
2017-07-19T04:00:57.705Z,144
2017-07-19T04:01:57.405Z,144
2017-07-19T04:02:57.405Z,152
2017-07-19T04:03:57.495Z,152
2017-07-19T04:04:57.544Z,152
2017-07-19T04:05:57.544Z,160
2017-07-19T04:06:57.569Z,160
2017-07-19T04:07:57.877Z,160
2017-07-19T04:08:57.699Z,168
2017-07-19T04:09:57.641Z,168
2017-07-19T04:10:58.023Z,168
2017-07-19T04:11:57.911Z,172
2017-07-19T04:12:57.944Z,176
2017-07-19T04:13:57.970Z,180
2017-07-19T04:14:57.981Z,180
2017-07-19T04:15:58.016Z,180
2017-07-19T04:16:58.049Z,184
2017-07-19T04:17:58.050Z,184
2017-07-19T04:18:57.804Z,192
2017-07-19T04:19:58.096Z,192
2017-07-19T04:20:57.807Z,196
2017-07-19T04:21:58.149Z,196
2017-07-19T04:22:58.174Z,200
2017-07-19T04:23:58.194Z,200
2017-07-19T04:24:58.237Z,204
2017-07-19T04:25:58.241Z,204
2017-07-19T04:26:57.633Z,204
2017-07-19T04:27:58.474Z,208
2017-07-19T04:28:58.482Z,212
2017-07-19T04:29:58.045Z,212
2017-07-19T04:30:58.483Z,216
2017-07-19T04:31:58.486Z,216
2017-07-19T04:32:58.205Z,216
2017-07-19T04:33:58.446Z,220
2017-07-19T04:34:58.451Z,224
2017-07-19T04:35:58.482Z,224
2017-07-19T04:36:58.498Z,224
2017-07-19T04:37:58.522Z,228
2017-07-19T04:38:58.654Z,232
2017-07-19T04:39:58.706Z,232
2017-07-19T04:40:58.803Z,236
2017-07-19T04:41:58.395Z,240
2017-07-19T04:42:58.857Z,240
2017-07-19T04:43:58.356Z,240
2017-07-19T04:44:58.386Z,244
2017-07-19T04:45:58.716Z,244
2017-07-19T04:46:58.741Z,248
2017-07-19T04:47:58.761Z,248
2017-07-19T04:48:58.789Z,248
2017-07-19T04:49:58.826Z,252
2017-07-19T04:50:58.848Z,256
2017-07-19T04:51:58.775Z,256
2017-07-19T04:52:58.895Z,260
2017-07-19T04:53:58.786Z,260
2017-07-19T04:54:58.919Z,260
2017-07-19T04:55:58.663Z,264
2017-07-19T04:56:58.786Z,264
2017-07-19T04:57:59.036Z,264
2017-07-19T04:58:58.734Z,268
2017-07-19T04:59:59.079Z,264
2017-07-19T05:00:59.068Z,268
2017-07-19T05:01:59.214Z,272
2017-07-19T05:02:58.801Z,272
2017-07-19T05:03:58.518Z,276
2017-07-19T05:04:59.161Z,276
2017-07-19T05:05:59.187Z,276
2017-07-19T05:06:59.210Z,280
2017-07-19T05:07:59.030Z,280
2017-07-19T05:08:59.379Z,284
2017-07-19T05:09:59.082Z,284
2017-07-19T05:10:59.437Z,288
2017-07-19T05:11:59.483Z,292
2017-07-19T05:12:59.481Z,292
2017-07-19T05:13:59.173Z,292
2017-07-19T05:14:59.453Z,292
2017-07-19T05:15:58.997Z,292
2017-07-19T05:16:59.307Z,296
2017-07-19T05:17:59.222Z,296
2017-07-19T05:18:59.533Z,300
2017-07-19T05:19:59.211Z,300
2017-07-19T05:20:59.538Z,304
2017-07-19T05:21:59.569Z,304
2017-07-19T05:22:59.270Z,308
2017-07-19T05:23:59.296Z,304
2017-07-19T05:24:59.761Z,304
2017-07-19T05:25:59.659Z,308
2017-07-19T05:26:59.363Z,304
2017-07-19T05:27:59.699Z,308
2017-07-19T05:28:59.722Z,308
2017-07-19T05:29:59.754Z,308
2017-07-19T05:30:59.785Z,312
2017-07-19T05:31:59.660Z,312
2017-07-19T05:32:59.944Z,312
2017-07-19T05:33:59.899Z,316
2017-07-19T05:34:59.862Z,316
2017-07-19T05:35:59.585Z,316
2017-07-19T05:36:59.946Z,320
2017-07-19T05:37:59.938Z,324
2017-07-19T05:38:59.645Z,324
2017-07-19T05:39:59.359Z,324
2017-07-19T05:41:00.008Z,328
2017-07-19T05:42:00.035Z,328
2017-07-19T05:42:59.759Z,328
2017-07-19T05:43:59.765Z,332
2017-07-19T05:45:00.113Z,332
2017-07-19T05:46:00.228Z,332
2017-07-19T05:46:59.836Z,332
2017-07-19T05:47:59.552Z,336
2017-07-19T05:49:00.261Z,336
2017-07-19T05:50:00.265Z,332
2017-07-19T05:51:00.259Z,340
2017-07-19T05:52:00.392Z,340
2017-07-19T05:52:59.975Z,344
2017-07-19T05:54:00.418Z,344
2017-07-19T05:55:00.594Z,348
2017-07-19T05:56:00.435Z,348
2017-07-19T05:57:00.384Z,356
2017-07-19T05:58:00.404Z,352
2017-07-19T05:59:00.457Z,352
2017-07-19T06:00:00.448Z,360
2017-07-19T06:01:00.168Z,360
2017-07-19T06:02:00.502Z,360
2017-07-19T06:03:00.533Z,364
2017-07-19T06:04:00.554Z,360
2017-07-19T06:05:00.259Z,364
2017-07-19T06:06:00.591Z,364
2017-07-19T06:07:00.626Z,364
2017-07-19T06:08:00.651Z,364
2017-07-19T06:09:00.660Z,364
2017-07-19T06:10:00.382Z,364
2017-07-19T06:11:00.831Z,368
2017-07-19T06:12:00.859Z,372
2017-07-19T06:13:00.784Z,368
2017-07-19T06:14:00.804Z,372
2017-07-19T06:15:00.493Z,380
2017-07-19T06:16:01.159Z,384
2017-07-19T06:17:00.865Z,380
2017-07-19T06:18:00.254Z,388
2017-07-19T06:19:00.619Z,388
2017-07-19T06:20:00.928Z,392
2017-07-19T06:21:01.180Z,396
2017-07-19T06:22:00.663Z,400
2017-07-19T06:23:01.217Z,404
2017-07-19T06:24:00.388Z,404
2017-07-19T06:25:00.726Z,404
2017-07-19T06:26:00.750Z,412
2017-07-19T06:27:00.774Z,412
2017-07-19T06:28:01.106Z,416
2017-07-19T06:29:00.822Z,420
2017-07-19T06:30:00.846Z,424
2017-07-19T06:31:01.193Z,428
2017-07-19T06:32:00.906Z,432
2017-07-19T06:33:01.331Z,436
2017-07-19T06:34:00.952Z,444
2017-07-19T06:35:01.279Z,448
2017-07-19T06:36:01.406Z,448
2017-07-19T06:37:01.408Z,452
2017-07-19T06:38:01.352Z,456
2017-07-19T06:39:01.177Z,460
2017-07-19T06:40:01.407Z,464
2017-07-19T06:41:01.108Z,472
2017-07-19T06:42:01.484Z,484
2017-07-19T06:43:01.485Z,504
2017-07-19T06:44:01.490Z,528
2017-07-19T06:45:01.513Z,564
2017-07-19T06:46:01.543Z,584
2017-07-19T06:47:01.564Z,576
2017-07-19T06:48:01.596Z,564
2017-07-19T06:49:01.610Z,564
2017-07-19T06:50:01.635Z,588
2017-07-19T06:51:01.662Z,624
2017-07-19T06:52:01.366Z,692
2017-07-19T06:53:01.393Z,772
2017-07-19T06:54:01.857Z,848
2017-07-19T06:55:01.888Z,932
2017-07-19T06:56:01.472Z,1112
2017-07-19T06:57:01.922Z,1336
2017-07-19T06:58:01.922Z,1508
2017-07-19T06:59:01.850Z,1596
2017-07-19T07:00:01.574Z,1512
2017-07-19T07:01:01.886Z,1432
2017-07-19T07:02:01.934Z,1416
2017-07-19T07:03:01.636Z,1520
2017-07-19T07:04:01.968Z,1628
2017-07-19T07:05:01.712Z,1656
2017-07-19T07:06:02.136Z,1696
2017-07-19T07:07:01.836Z,1776
2017-07-19T07:08:01.756Z,1724
2017-07-19T07:09:01.459Z,1588
2017-07-19T07:10:02.187Z,1364
2017-07-19T07:11:02.169Z,1072
2017-07-19T07:12:01.854Z,896
2017-07-19T07:13:01.874Z,820
2017-07-19T07:14:01.596Z,824
2017-07-19T07:15:01.920Z,836
2017-07-19T07:16:02.265Z,784
2017-07-19T07:17:01.338Z,684
2017-07-19T07:18:02.305Z,624
2017-07-19T07:19:02.338Z,640
2017-07-19T07:20:02.358Z,664
2017-07-19T07:21:02.065Z,680
2017-07-19T07:22:02.408Z,648
2017-07-19T07:23:02.442Z,556
2017-07-19T07:24:02.462Z,516
2017-07-19T07:25:02.480Z,512
2017-07-19T07:26:01.874Z,512
2017-07-19T07:27:02.212Z,516
2017-07-19T07:28:02.561Z,524
2017-07-19T07:29:02.263Z,528
2017-07-19T07:30:02.608Z,528
2017-07-19T07:31:02.002Z,524
2017-07-19T07:32:02.342Z,524
2017-07-19T07:33:02.674Z,524
2017-07-19T07:34:02.700Z,524
2017-07-19T07:35:02.431Z,528
2017-07-19T07:36:02.748Z,528
2017-07-19T07:37:02.267Z,532
2017-07-19T07:38:02.811Z,532
2017-07-19T07:39:02.509Z,536
2017-07-19T07:40:02.867Z,540
2017-07-19T07:41:01.933Z,544
2017-07-19T07:42:02.923Z,548
2017-07-19T07:43:02.923Z,552
2017-07-19T07:44:02.953Z,552
2017-07-19T07:45:02.433Z,552
2017-07-19T07:46:03.015Z,552
2017-07-19T07:47:03.025Z,556
2017-07-19T07:48:03.043Z,556
2017-07-19T07:49:02.758Z,560
2017-07-19T07:50:03.092Z,568
2017-07-19T07:51:02.815Z,568
2017-07-19T07:52:03.164Z,572
2017-07-19T07:53:03.173Z,580
2017-07-19T07:54:03.231Z,580
2017-07-19T07:55:03.225Z,584
2017-07-19T07:56:02.947Z,588
2017-07-19T07:57:02.976Z,592
2017-07-19T07:58:03.307Z,600
2017-07-19T07:59:03.009Z,604
2017-07-19T08:00:03.048Z,616
2017-07-19T08:01:03.381Z,620
2017-07-19T08:02:03.120Z,624
2017-07-19T08:03:02.794Z,628
2017-07-19T08:04:03.150Z,628
2017-07-19T08:05:03.158Z,636
2017-07-19T08:06:03.506Z,640
2017-07-19T08:07:03.652Z,652
2017-07-19T08:08:03.107Z,660
2017-07-19T08:09:03.580Z,668
2017-07-19T08:10:02.997Z,672
2017-07-19T08:11:03.321Z,676
2017-07-19T08:12:03.671Z,680
2017-07-19T08:13:03.675Z,688
2017-07-19T08:14:03.718Z,692
2017-07-19T08:15:03.421Z,696
2017-07-19T08:16:03.773Z,700
2017-07-19T08:17:03.816Z,704
2017-07-19T08:18:03.816Z,704
2017-07-19T08:19:03.528Z,708
2017-07-19T08:20:03.226Z,716
2017-07-19T08:21:03.898Z,724
2017-07-19T08:22:03.291Z,728
2017-07-19T08:23:03.633Z,736
2017-07-19T08:24:03.971Z,740
2017-07-19T08:25:03.676Z,744
2017-07-19T08:26:03.387Z,756
2017-07-19T08:27:03.781Z,764
2017-07-19T08:28:04.066Z,772
2017-07-19T08:29:03.776Z,780
2017-07-19T08:30:04.125Z,788
2017-07-19T08:31:04.145Z,796
2017-07-19T08:32:04.174Z,808
2017-07-19T08:33:04.228Z,816
2017-07-19T08:34:04.267Z,828
2017-07-19T08:35:03.938Z,836
2017-07-19T08:36:04.280Z,844
2017-07-19T08:37:03.994Z,848
2017-07-19T08:38:04.027Z,856
2017-07-19T08:39:04.414Z,864
2017-07-19T08:40:03.759Z,872
2017-07-19T08:41:04.092Z,884
2017-07-19T08:42:04.438Z,900
2017-07-19T08:43:04.161Z,908
2017-07-19T08:44:03.868Z,920
2017-07-19T08:45:04.196Z,936
2017-07-19T08:46:04.552Z,956
2017-07-19T08:47:04.576Z,964
2017-07-19T08:48:04.596Z,976
2017-07-19T08:49:04.310Z,996
2017-07-19T08:50:04.348Z,1016
2017-07-19T08:51:04.686Z,1032
2017-07-19T08:52:04.706Z,1044
2017-07-19T08:53:04.415Z,1052
2017-07-19T08:54:04.758Z,1064
2017-07-19T08:55:04.608Z,1064
2017-07-19T08:56:04.506Z,1068
2017-07-19T08:57:04.841Z,1076
2017-07-19T08:58:04.877Z,1088
2017-07-19T08:59:04.590Z,1096
2017-07-19T09:00:05.030Z,1104
2017-07-19T09:01:04.321Z,1108
2017-07-19T09:02:04.982Z,1112
2017-07-19T09:03:05.008Z,1112
2017-07-19T09:04:05.035Z,1112
2017-07-19T09:05:05.092Z,1112
2017-07-19T09:06:05.199Z,1108
2017-07-19T09:07:05.182Z,1112
2017-07-19T09:08:04.840Z,1116
2017-07-19T09:09:05.209Z,1128
2017-07-19T09:10:05.207Z,1140
2017-07-19T09:11:05.320Z,1160
2017-07-19T09:12:05.346Z,1176
2017-07-19T09:13:05.344Z,1176
2017-07-19T09:14:04.707Z,1180
2017-07-19T09:15:05.026Z,1180
2017-07-19T09:16:05.375Z,1180
2017-07-19T09:17:05.075Z,1184
2017-07-19T09:18:05.209Z,1188
2017-07-19T09:19:05.451Z,1200
2017-07-19T09:20:05.208Z,1208
2017-07-19T09:21:05.206Z,1212
2017-07-19T09:22:05.531Z,1220
2017-07-19T09:23:05.352Z,1228
2017-07-19T09:24:05.597Z,1240
2017-07-19T09:25:05.318Z,1248
2017-07-19T09:26:05.328Z,1256
2017-07-19T09:27:05.699Z,1264
2017-07-19T09:28:05.723Z,1276
2017-07-19T09:29:05.432Z,1288
2017-07-19T09:30:05.466Z,1300
2017-07-19T09:31:05.808Z,1308
2017-07-19T09:32:05.852Z,1320
2017-07-19T09:33:05.543Z,1320
2017-07-19T09:34:05.594Z,1336
2017-07-19T09:35:05.595Z,1340
2017-07-19T09:36:05.965Z,1344
2017-07-19T09:37:05.659Z,1344
2017-07-19T09:38:05.689Z,1348
2017-07-19T09:39:05.716Z,1352
2017-07-19T09:40:05.436Z,1356
2017-07-19T09:41:06.086Z,1364
2017-07-19T09:42:06.125Z,1372
2017-07-19T09:43:06.239Z,1360
2017-07-19T09:44:06.185Z,1360
2017-07-19T09:45:05.894Z,1356
2017-07-19T09:46:06.256Z,1388
2017-07-19T09:47:05.642Z,1404
2017-07-19T09:48:06.320Z,1412
2017-07-19T09:49:06.333Z,1424
2017-07-19T09:50:06.034Z,1424
2017-07-19T09:51:06.403Z,1440
2017-07-19T09:52:06.502Z,1452
2017-07-19T09:53:05.820Z,1460
2017-07-19T09:54:06.485Z,1472
2017-07-19T09:55:06.513Z,1476
2017-07-19T09:56:06.119Z,1504
2017-07-19T09:57:06.294Z,1512
2017-07-19T09:58:06.294Z,1532
2017-07-19T09:59:06.640Z,1548
2017-07-19T10:00:06.784Z,1568
2017-07-19T10:01:06.474Z,1584
2017-07-19T10:02:06.727Z,1600
2017-07-19T10:03:06.438Z,1604
2017-07-19T10:04:06.782Z,1612
2017-07-19T10:05:06.505Z,1616
2017-07-19T10:06:06.841Z,1628
2017-07-19T10:07:06.998Z,1636
2017-07-19T10:08:06.271Z,1612
2017-07-19T10:09:06.631Z,1592
2017-07-19T10:10:06.666Z,1580
2017-07-19T10:11:06.682Z,1572
2017-07-19T10:12:06.716Z,1572
2017-07-19T10:13:06.751Z,1580
2017-07-19T10:14:06.459Z,1464
2017-07-19T10:15:07.198Z,1600
2017-07-19T10:16:07.224Z,1640
2017-07-19T10:17:07.225Z,1656
2017-07-19T10:18:06.923Z,1688
2017-07-19T10:19:07.272Z,1688
2017-07-19T10:20:07.052Z,1696
2017-07-19T10:21:07.309Z,1708
2017-07-19T10:22:07.351Z,1724
2017-07-19T10:23:07.378Z,1728
2017-07-19T10:24:07.199Z,1712
2017-07-19T10:25:07.201Z,1708
2017-07-19T10:26:06.931Z,1732
2017-07-19T10:27:07.504Z,1740
2017-07-19T10:28:07.539Z,1736
2017-07-19T10:29:06.620Z,1772
2017-07-19T10:30:07.317Z,1776
2017-07-19T10:31:07.088Z,1792
2017-07-19T10:32:07.342Z,1816
2017-07-19T10:33:07.689Z,1832
2017-07-19T10:34:07.732Z,1848
2017-07-19T10:35:07.768Z,1860
2017-07-19T10:36:07.488Z,1876
2017-07-19T10:37:07.826Z,1884
2017-07-19T10:38:07.880Z,1884
2017-07-19T10:39:07.575Z,1876
2017-07-19T10:40:07.601Z,1904
2017-07-19T10:41:07.957Z,1920
2017-07-19T10:42:07.676Z,1932
2017-07-19T10:43:08.020Z,1948
2017-07-19T10:44:07.442Z,1956
2017-07-19T10:45:07.779Z,1964
2017-07-19T10:46:08.129Z,1972
2017-07-19T10:47:08.156Z,1980
2017-07-19T10:48:07.548Z,1980
2017-07-19T10:49:08.221Z,1988
2017-07-19T10:50:08.265Z,2004
2017-07-19T10:51:08.293Z,2020
2017-07-19T10:52:07.696Z,2032
2017-07-19T10:53:08.368Z,2044
2017-07-19T10:54:08.386Z,2060
2017-07-19T10:55:07.773Z,2072
2017-07-19T10:56:08.141Z,2080
2017-07-19T10:57:08.161Z,2096
2017-07-19T10:58:08.523Z,2104
2017-07-19T10:59:08.238Z,2116
2017-07-19T11:00:08.271Z,2124
2017-07-19T11:01:08.615Z,2136
2017-07-19T11:02:08.653Z,2160
2017-07-19T11:03:08.710Z,2180
2017-07-19T11:04:08.421Z,2200
2017-07-19T11:05:08.443Z,2216
2017-07-19T11:06:08.469Z,2236
2017-07-19T11:07:08.820Z,2264
2017-07-19T11:08:08.859Z,2280
2017-07-19T11:09:08.572Z,2304
2017-07-19T11:10:08.607Z,2296
2017-07-19T11:11:09.048Z,2336
2017-07-19T11:12:08.673Z,2324
2017-07-19T11:13:09.049Z,2412
2017-07-19T11:14:08.434Z,2476
2017-07-19T11:15:09.113Z,2568
2017-07-19T11:16:08.812Z,2612
2017-07-19T11:17:08.960Z,2736
2017-07-19T11:18:08.897Z,2916
2017-07-19T11:19:08.948Z,2928
2017-07-19T11:20:09.405Z,2880
2017-07-19T11:21:09.079Z,2712
2017-07-19T11:22:08.691Z,2656
2017-07-19T11:23:09.102Z,2660
2017-07-19T11:24:09.538Z,2672
2017-07-19T11:25:08.916Z,2708
2017-07-19T11:26:09.252Z,2760
2017-07-19T11:27:09.586Z,2796
2017-07-19T11:28:09.616Z,2748
2017-07-19T11:29:09.403Z,2644
2017-07-19T11:30:09.402Z,2552
2017-07-19T11:31:09.412Z,2496
2017-07-19T11:32:09.713Z,2400
2017-07-19T11:33:09.548Z,2496
2017-07-19T11:34:09.429Z,2640
2017-07-19T11:35:09.548Z,2780
2017-07-19T11:36:09.817Z,2848
2017-07-19T11:37:09.540Z,2896
2017-07-19T11:38:09.884Z,2932
2017-07-19T11:39:09.915Z,2968
2017-07-19T11:40:09.965Z,2984
2017-07-19T11:41:09.991Z,2984
2017-07-19T11:42:10.057Z,2944
2017-07-19T11:43:10.060Z,2784
2017-07-19T11:44:10.116Z,2748
2017-07-19T11:45:10.141Z,2756
2017-07-19T11:46:09.617Z,2772
2017-07-19T11:47:09.894Z,2780
2017-07-19T11:48:10.247Z,2756
2017-07-19T11:49:09.955Z,2892
2017-07-19T11:50:10.001Z,3120
2017-07-19T11:51:10.031Z,3132
2017-07-19T11:52:09.755Z,3140
2017-07-19T11:53:10.120Z,3140
2017-07-19T11:54:10.460Z,3124
2017-07-19T11:55:10.189Z,3104
2017-07-19T11:56:10.528Z,3088
2017-07-19T11:57:09.945Z,3080
2017-07-19T11:58:10.602Z,3076
2017-07-19T11:59:10.640Z,3084
2017-07-19T12:00:10.671Z,3108
2017-07-19T12:01:10.401Z,3136
2017-07-19T12:02:10.450Z,3180
2017-07-19T12:03:10.457Z,3228
2017-07-19T12:04:10.815Z,3260
2017-07-19T12:05:10.874Z,3304
2017-07-19T12:06:10.890Z,3348
2017-07-19T12:07:10.610Z,3376
2017-07-19T12:08:10.951Z,3408
2017-07-19T12:09:10.995Z,3340
2017-07-19T12:10:11.032Z,3428
2017-07-19T12:11:11.070Z,3312
2017-07-19T12:12:10.791Z,3220
2017-07-19T12:13:11.148Z,2832
2017-07-19T12:14:11.182Z,3236
2017-07-19T12:15:11.218Z,3104
2017-07-19T12:16:11.248Z,3628
2017-07-19T12:17:11.399Z,3792
2017-07-19T12:18:11.011Z,3848
2017-07-19T12:19:11.369Z,3844
2017-07-19T12:20:11.123Z,3700
2017-07-19T12:21:11.115Z,3540
2017-07-19T12:22:11.162Z,3476
2017-07-19T12:23:11.655Z,3460
2017-07-19T12:24:11.664Z,3488
2017-07-19T12:25:11.674Z,3488
2017-07-19T12:26:11.505Z,3492
2017-07-19T12:27:11.508Z,3496
2017-07-19T12:28:11.509Z,3528
2017-07-19T12:29:11.515Z,3544
2017-07-19T12:30:11.974Z,3560
2017-07-19T12:31:11.974Z,3564
2017-07-19T12:32:11.656Z,3640
2017-07-19T12:33:11.643Z,3700
2017-07-19T12:34:11.823Z,3772
2017-07-19T12:35:11.794Z,3852
2017-07-19T12:36:12.028Z,3896
2017-07-19T12:37:12.049Z,3948
2017-07-19T12:38:12.064Z,3996
2017-07-19T12:39:12.093Z,4032
2017-07-19T12:40:12.138Z,4064
2017-07-19T12:41:12.169Z,4104
2017-07-19T12:42:12.201Z,4108
2017-07-19T12:43:12.237Z,4000
2017-07-19T12:44:11.651Z,3980
2017-07-19T12:45:12.003Z,4132
2017-07-19T12:46:12.041Z,4160
2017-07-19T12:47:12.086Z,4288
2017-07-19T12:48:12.129Z,4344
2017-07-19T12:49:12.154Z,4292
2017-07-19T12:50:12.511Z,4296
2017-07-19T12:51:12.543Z,4320
2017-07-19T12:52:12.258Z,4328
2017-07-19T12:53:12.614Z,4360
2017-07-19T12:54:12.660Z,4396
2017-07-19T12:55:12.694Z,4456
2017-07-19T12:56:12.095Z,4456
2017-07-19T12:57:12.772Z,4612
2017-07-19T12:58:12.811Z,4588
2017-07-19T12:59:12.548Z,4828
2017-07-19T13:00:12.564Z,5060
2017-07-19T13:01:12.922Z,5100
2017-07-19T13:02:12.649Z,4860
2017-07-19T13:03:12.996Z,4212
2017-07-19T13:04:12.709Z,3132
2017-07-19T13:05:13.072Z,2372
2017-07-19T13:06:12.794Z,1632
2017-07-19T13:07:13.151Z,1708
2017-07-19T13:08:13.183Z,2660
2017-07-19T13:09:13.220Z,3456
2017-07-19T13:10:12.631Z,3460
2017-07-19T13:11:13.296Z,2784
2017-07-19T13:12:13.345Z,3392
2017-07-19T13:13:13.378Z,3964
2017-07-19T13:14:13.430Z,3888
2017-07-19T13:15:13.454Z,4188
2017-07-19T13:16:13.485Z,4168
2017-07-19T13:17:13.531Z,4148
2017-07-19T13:18:13.564Z,4136
2017-07-19T13:19:13.607Z,4128
2017-07-19T13:20:13.327Z,4212
2017-07-19T13:21:13.766Z,4208
2017-07-19T13:22:13.775Z,4232
2017-07-19T13:23:13.459Z,4248
2017-07-19T13:24:13.914Z,4268
2017-07-19T13:25:13.947Z,4300
2017-07-19T13:26:13.631Z,4300
2017-07-19T13:27:14.043Z,4300
2017-07-19T13:28:14.038Z,4300
2017-07-19T13:29:13.764Z,4308
2017-07-19T13:30:14.115Z,4312
2017-07-19T13:31:14.184Z,4332
2017-07-19T13:32:14.205Z,4340
2017-07-19T13:33:14.351Z,4352
2017-07-19T13:34:13.738Z,4336
2017-07-19T13:35:14.385Z,4336
2017-07-19T13:36:14.068Z,4388
2017-07-19T13:37:14.063Z,4392
2017-07-19T13:38:14.123Z,4384
2017-07-19T13:39:14.143Z,4420
2017-07-19T13:40:14.411Z,4352
2017-07-19T13:41:14.127Z,4412
2017-07-19T13:42:14.174Z,4584
2017-07-19T13:43:14.543Z,4428
2017-07-19T13:44:14.572Z,4792
2017-07-19T13:45:14.618Z,4700
2017-07-19T13:46:14.323Z,4752
2017-07-19T13:47:14.375Z,4856
2017-07-19T13:48:14.734Z,4800
2017-07-19T13:49:14.760Z,5044
2017-07-19T13:50:14.485Z,4944